Time;durP1;ratioP1;P1;durP2;ratioP2;P2;SDS_P1;SDS_P2;PMS_P1;PMS_P2;Temp;Humidity;BMP_temperature;BMP_pressure;BME280_temperature;BME280_humidity;BME280_pressure;Samples;Min_cycle;Max_cycle;Signal;HPM_P1;HPM_P2
2021/08/07 00:00:17;;;;;;;13.97;3.47;;;;;;;;;;5114907;28;20747;-76
2021/08/07 00:02:45;;;;;;;11.43;3.23;;;;;;;;;;5115059;28;20306;-76
2021/08/07 00:05:12;;;;;;;12.73;3.20;;;;;;;;;;5114782;28;20225;-76
2021/08/07 00:07:39;;;;;;;8.40;2.67;;;;;;;;;;5114657;28;20255;-76
2021/08/07 00:10:08;;;;;;;12.10;3.13;;;;;;;;;;5114987;28;20253;-76
2021/08/07 00:12:35;;;;;;;11.40;3.00;;;;;;;;;;5114777;28;20201;-76
2021/08/07 00:15:02;;;;;;;9.97;2.67;;;;;;;;;;5114566;28;20230;-76
2021/08/07 00:17:31;;;;;;;10.90;2.73;;;;;;;;;;5114525;28;20303;-76
2021/08/07 00:19:58;;;;;;;8.47;2.50;;;;;;;;;;5114195;28;20684;-76
2021/08/07 00:22:25;;;;;;;10.23;2.53;;;;;;;;;;5114726;27;20638;-77
2021/08/07 00:24:52;;;;;;;8.17;2.40;;;;;;;;;;5114639;28;20236;-76
2021/08/07 00:27:20;;;;;;;10.80;2.63;;;;;;;;;;5114377;28;20233;-77
2021/08/07 00:29:47;;;;;;;11.97;2.43;;;;;;;;;;5114184;28;20640;-76
2021/08/07 00:32:14;;;;;;;13.80;3.03;;;;;;;;;;5114702;28;20281;-76
2021/08/07 00:34:42;;;;;;;8.43;2.20;;;;;;;;;;5114388;27;20221;-76
2021/08/07 00:37:10;;;;;;;9.93;2.53;;;;;;;;;;5114460;28;20237;-76
2021/08/07 00:39:37;;;;;;;13.23;2.93;;;;;;;;;;5114415;28;20229;-76
2021/08/07 00:42:04;;;;;;;10.20;2.80;;;;;;;;;;5114495;28;20313;-76
2021/08/07 00:44:32;;;;;;;10.23;2.43;;;;;;;;;;5114351;28;20233;-76
2021/08/07 00:46:59;;;;;;;10.67;2.50;;;;;;;;;;5113848;28;20285;-76
2021/08/07 00:49:26;;;;;;;11.93;3.03;;;;;;;;;;5114139;28;20244;-76
2021/08/07 00:51:54;;;;;;;10.30;2.47;;;;;;;;;;5126067;27;20292;-76
2021/08/07 00:54:22;;;;;;;7.03;2.37;;;;;;;;;;5133928;27;20319;-77
2021/08/07 00:56:49;;;;;;;8.13;2.73;;;;;;;;;;5134450;27;20668;-76
2021/08/07 00:59:16;;;;;;;11.13;2.47;;;;;;;;;;5134451;27;20232;-76
2021/08/07 01:01:45;;;;;;;11.60;2.93;;;;;;;;;;5134029;27;20288;-76
2021/08/07 01:04:17;;;;;;;9.67;2.53;;;;;;;;;;5134107;27;20232;-76
2021/08/07 01:06:48;;;;;;;8.93;2.70;;;;;;;;;;5134471;27;20232;-77
2021/08/07 01:09:23;;;;;;;12.37;3.13;;;;;;;;;;5134377;27;20248;-77
2021/08/07 01:11:52;;;;;;;9.67;3.00;;;;;;;;;;5134127;27;20598;-76
2021/08/07 01:14:23;;;;;;;12.80;3.03;;;;;;;;;;5134143;27;20228;-76
2021/08/07 01:16:54;;;;;;;8.30;3.10;;;;;;;;;;5133791;27;20228;-76
2021/08/07 01:19:22;;;;;;;9.47;2.77;;;;;;;;;;5133895;27;20678;-77
2021/08/07 01:21:52;;;;;;;9.67;3.10;;;;;;;;;;5133718;27;20291;-75
2021/08/07 01:24:24;;;;;;;7.10;2.90;;;;;;;;;;5133990;27;20280;-76
2021/08/07 01:27:00;;;;;;;9.47;2.70;;;;;;;;;;5134006;27;20193;-76
2021/08/07 01:29:29;;;;;;;10.10;3.03;;;;;;;;;;5133658;27;20196;-76
2021/08/07 01:31:57;;;;;;;9.57;2.60;;;;;;;;;;5133340;27;20287;-76
2021/08/07 01:34:25;;;;;;;9.53;3.03;;;;;;;;;;5133928;27;20232;-76
2021/08/07 01:36:52;;;;;;;10.27;3.37;;;;;;;;;;5133727;27;20657;-76
2021/08/07 01:39:20;;;;;;;10.93;3.50;;;;;;;;;;5133695;27;20287;-77
2021/08/07 01:41:47;;;;;;;10.77;3.63;;;;;;;;;;5133653;27;20293;-76
2021/08/07 01:44:14;;;;;;;10.87;3.43;;;;;;;;;;5133602;27;20256;-76
2021/08/07 01:46:49;;;;;;;10.80;3.60;;;;;;;;;;5133345;27;20233;-77
2021/08/07 01:49:17;;;;;;;12.57;3.27;;;;;;;;;;5133425;27;20214;-76
2021/08/07 01:51:46;;;;;;;10.37;3.53;;;;;;;;;;5122241;27;20635;-76
2021/08/07 01:54:15;;;;;;;8.77;3.10;;;;;;;;;;5112597;28;20276;-77
2021/08/07 01:56:45;;;;;;;9.80;3.30;;;;;;;;;;5113074;28;20256;-77
2021/08/07 01:59:14;;;;;;;9.97;3.30;;;;;;;;;;5112755;28;20217;-76
2021/08/07 02:01:42;;;;;;;10.90;3.20;;;;;;;;;;5112848;28;20233;-77
2021/08/07 02:04:11;;;;;;;10.33;3.10;;;;;;;;;;5113008;27;20308;-77
2021/08/07 02:06:38;;;;;;;8.70;3.27;;;;;;;;;;5110850;28;20197;-76
2021/08/07 02:09:05;;;;;;;13.60;3.93;;;;;;;;;;5112607;28;20270;-77
2021/08/07 02:11:34;;;;;;;15.17;3.50;;;;;;;;;;5112587;28;20333;-76
2021/08/07 02:14:01;;;;;;;7.50;3.00;;;;;;;;;;5112770;28;20197;-76
2021/08/07 02:16:29;;;;;;;9.80;3.47;;;;;;;;;;5113141;28;20225;-81
2021/08/07 02:18:56;;;;;;;8.40;3.10;;;;;;;;;;5112916;28;20229;-82
2021/08/07 02:21:25;;;;;;;6.30;2.90;;;;;;;;;;5112671;28;20232;-81
2021/08/07 02:23:52;;;;;;;8.70;3.00;;;;;;;;;;5112457;28;20676;-81
2021/08/07 02:26:21;;;;;;;8.77;3.10;;;;;;;;;;5113056;28;20620;-81
2021/08/07 02:28:49;;;;;;;10.63;3.20;;;;;;;;;;5112173;28;20244;-81
2021/08/07 02:31:16;;;;;;;9.67;2.93;;;;;;;;;;5112614;27;20289;-81
2021/08/07 02:33:44;;;;;;;8.63;2.70;;;;;;;;;;5112874;28;20273;-81
2021/08/07 02:36:12;;;;;;;13.07;3.17;;;;;;;;;;5112947;28;20285;-81
2021/08/07 02:38:41;;;;;;;7.20;3.43;;;;;;;;;;5112572;28;20558;-81
2021/08/07 02:41:08;;;;;;;8.27;3.10;;;;;;;;;;5112557;28;20650;-81
2021/08/07 02:43:36;;;;;;;10.40;3.40;;;;;;;;;;5112237;28;20392;-81
2021/08/07 02:46:03;;;;;;;9.30;3.20;;;;;;;;;;5112393;28;20229;-81
2021/08/07 02:48:32;;;;;;;11.37;2.87;;;;;;;;;;5112440;28;20289;-81
2021/08/07 02:51:00;;;;;;;10.03;2.97;;;;;;;;;;5112566;28;20297;-80
2021/08/07 02:53:28;;;;;;;8.97;3.10;;;;;;;;;;5112290;28;20257;-80
2021/08/07 02:55:57;;;;;;;10.20;3.10;;;;;;;;;;5112469;28;20208;-80
2021/08/07 02:58:24;;;;;;;10.47;3.53;;;;;;;;;;5111947;28;20198;-80
2021/08/07 03:00:52;;;;;;;10.07;2.93;;;;;;;;;;5112439;28;20208;-80
2021/08/07 03:03:19;;;;;;;10.20;2.67;;;;;;;;;;5112260;28;20316;-80
2021/08/07 03:05:46;;;;;;;9.43;3.07;;;;;;;;;;5112564;28;20244;-81
2021/08/07 03:08:14;;;;;;;6.87;2.50;;;;;;;;;;5112381;28;20305;-80
2021/08/07 03:10:41;;;;;;;9.90;3.37;;;;;;;;;;5112095;28;20288;-80
2021/08/07 03:13:10;;;;;;;12.33;3.63;;;;;;;;;;5111914;28;20242;-80
2021/08/07 03:15:37;;;;;;;10.07;2.83;;;;;;;;;;5112325;28;20293;-80
2021/08/07 03:18:05;;;;;;;12.60;2.90;;;;;;;;;;5115582;28;20233;-81
2021/08/07 03:20:32;;;;;;;6.10;2.40;;;;;;;;;;5116152;28;20305;-80
2021/08/07 03:22:59;;;;;;;10.73;2.90;;;;;;;;;;5116182;27;20243;-80
2021/08/07 03:25:27;;;;;;;13.87;3.20;;;;;;;;;;5115828;28;20289;-79
2021/08/07 03:27:55;;;;;;;7.90;2.77;;;;;;;;;;5115483;28;20289;-80
2021/08/07 03:30:23;;;;;;;7.73;2.23;;;;;;;;;;5115521;28;20292;-80
2021/08/07 03:32:51;;;;;;;7.00;2.50;;;;;;;;;;5115677;28;20283;-80
2021/08/07 03:35:19;;;;;;;9.07;2.20;;;;;;;;;;5115780;28;20300;-80
2021/08/07 03:37:46;;;;;;;11.77;2.50;;;;;;;;;;5115880;28;20323;-80
2021/08/07 03:40:14;;;;;;;11.33;2.60;;;;;;;;;;5115692;27;20280;-80
2021/08/07 03:42:42;;;;;;;9.13;2.87;;;;;;;;;;5115038;28;20582;-80
2021/08/07 03:45:10;;;;;;;11.43;2.60;;;;;;;;;;5115581;28;20685;-80
2021/08/07 03:47:47;;;;;;;12.47;3.17;;;;;;;;;;5115553;27;20285;-80
2021/08/07 03:50:15;;;;;;;7.93;2.87;;;;;;;;;;5115576;28;20288;-80
2021/08/07 03:52:43;;;;;;;6.70;2.67;;;;;;;;;;5115079;27;20671;-80
2021/08/07 03:55:11;;;;;;;5.90;2.43;;;;;;;;;;5115083;28;20288;-80
2021/08/07 03:57:49;;;;;;;7.97;2.90;;;;;;;;;;5114915;28;20297;-80
2021/08/07 04:00:18;;;;;;;9.03;2.40;;;;;;;;;;5114921;28;20766;-81
2021/08/07 04:02:47;;;;;;;10.03;2.70;;;;;;;;;;5115416;28;20618;-80
2021/08/07 04:05:14;;;;;;;4.90;2.40;;;;;;;;;;5115185;28;20282;-81
2021/08/07 04:07:42;;;;;;;8.53;2.67;;;;;;;;;;5115018;28;20240;-80
2021/08/07 04:10:10;;;;;;;8.43;2.60;;;14.60;99.90;;;;;;5114670;28;20796;-80
2021/08/07 04:12:37;;;;;;;7.90;2.80;;;14.80;99.90;;;;;;5115136;28;20200;-81
2021/08/07 04:15:05;;;;;;;7.13;2.40;;;14.70;99.90;;;;;;5115216;28;20198;-80
2021/08/07 04:17:32;;;;;;;10.20;3.20;;;14.70;99.90;;;;;;5114875;28;20285;-81
2021/08/07 04:20:01;;;;;;;9.70;2.60;;;14.70;99.90;;;;;;5114616;28;20760;-81
2021/08/07 04:22:28;;;;;;;6.17;2.73;;;14.70;99.90;;;;;;5115009;28;20193;-82
2021/08/07 04:24:55;;;;;;;7.17;2.30;;;14.70;99.90;;;;;;5114629;27;20218;-81
2021/08/07 04:27:22;;;;;;;8.40;2.83;;;14.80;99.90;;;;;;5114563;28;20281;-82
2021/08/07 04:29:49;;;;;;;5.47;2.10;;;14.80;99.90;;;;;;5113967;28;20300;-81
2021/08/07 04:32:16;;;;;;;7.83;2.50;;;14.80;99.90;;;;;;5114852;28;20293;-81
2021/08/07 04:34:44;;;;;;;7.67;2.37;;;14.80;99.90;;;;;;5114452;28;20221;-81
2021/08/07 04:37:13;;;;;;;5.37;2.00;;;;;;;;;;5114268;28;20288;-81
2021/08/07 04:39:41;;;;;;;7.47;2.20;;;;;;;;;;5113933;28;20229;-81
2021/08/07 04:42:09;;;;;;;7.00;2.27;;;;;;;;;;5114323;28;20284;-81
2021/08/07 04:44:37;;;;;;;7.30;2.20;;;;;;;;;;5113215;28;20228;-81
2021/08/07 04:47:05;;;;;;;7.17;2.13;;;;;;;;;;5114376;28;20229;-81
2021/08/07 04:49:32;;;;;;;7.73;1.97;;;14.90;99.90;;;;;;5114154;28;20277;-81
2021/08/07 04:51:59;;;;;;;6.73;2.43;;;15.00;99.90;;;;;;5113896;27;20407;-81
2021/08/07 04:54:27;;;;;;;6.90;2.50;;;15.00;99.90;;;;;;5113611;28;20269;-81
2021/08/07 04:56:54;;;;;;;5.80;1.87;;;14.90;99.90;;;;;;5114295;27;20232;-81
2021/08/07 04:59:21;;;;;;;4.07;2.10;;;14.90;99.90;;;;;;5114191;28;20194;-80
2021/08/07 05:01:48;;;;;;;9.23;2.70;;;14.90;99.90;;;;;;5113803;28;20292;-81
2021/08/07 05:04:14;;;;;;;7.10;2.40;;;14.90;99.90;;;;;;5114016;28;20222;-81
2021/08/07 05:06:44;;;;;;;3.70;2.03;;;14.90;99.90;;;;;;5113911;28;20229;-81
2021/08/07 05:09:11;;;;;;;7.97;2.23;;;14.90;99.90;;;;;;5113728;28;20217;-81
2021/08/07 05:11:39;;;;;;;5.33;2.17;;;14.90;99.90;;;;;;5113601;28;20725;-81
2021/08/07 05:14:06;;;;;;;4.50;2.17;;;14.90;99.90;;;;;;5113924;28;20214;-81
2021/08/07 05:16:33;;;;;;;6.00;2.30;;;14.90;99.90;;;;;;5113421;28;20743;-82
2021/08/07 05:19:00;;;;;;;8.63;2.63;;;14.90;99.90;;;;;;5113501;28;20683;-82
2021/08/07 05:21:27;;;;;;;6.43;2.23;;;14.90;99.90;;;;;;5113872;28;20229;-81
2021/08/07 05:23:54;;;;;;;9.37;2.40;;;15.00;99.90;;;;;;5113441;28;20252;-82
2021/08/07 05:26:21;;;;;;;7.47;2.80;;;15.00;99.90;;;;;;5113443;28;20237;-81
2021/08/07 05:28:49;;;;;;;5.70;2.40;;;15.00;99.90;;;;;;5113129;28;20684;-81
2021/08/07 05:31:16;;;;;;;8.83;2.10;;;15.00;99.90;;;;;;5113696;28;20284;-81
2021/08/07 05:33:42;;;;;;;6.40;2.53;;;15.00;99.90;;;;;;5113412;28;20292;-81
2021/08/07 05:36:09;;;;;;;7.37;2.30;;;15.00;99.90;;;;;;5113538;28;20248;-81
2021/08/07 05:38:36;;;;;;;7.37;2.20;;;15.00;99.90;;;;;;5113223;28;20202;-81
2021/08/07 05:41:03;;;;;;;8.40;2.33;;;15.00;99.90;;;;;;5113484;28;20281;-81
2021/08/07 05:43:30;;;;;;;8.17;2.23;;;15.00;99.90;;;;;;5113384;28;20322;-81
2021/08/07 05:45:58;;;;;;;6.37;2.20;;;15.10;99.90;;;;;;5113170;28;20240;-81
2021/08/07 05:48:26;;;;;;;6.37;2.20;;;15.00;99.90;;;;;;5113013;28;20233;-82
2021/08/07 05:50:53;;;;;;;6.23;1.90;;;15.00;99.90;;;;;;5113229;28;20296;-81
2021/08/07 05:53:20;;;;;;;5.87;1.97;;;15.00;99.90;;;;;;5112617;28;20390;-81
2021/08/07 05:55:47;;;;;;;6.77;2.20;;;15.00;99.90;;;;;;5113024;28;20293;-82
2021/08/07 05:58:13;;;;;;;6.87;1.80;;;15.00;99.90;;;;;;5113060;28;20284;-81
2021/08/07 06:00:40;;;;;;;8.80;2.30;;;14.90;99.90;;;;;;5113307;28;20398;-81
2021/08/07 06:03:09;;;;;;;8.70;2.07;;;15.00;99.90;;;;;;5112924;28;20243;-81
2021/08/07 06:05:35;;;;;;;8.47;1.97;;;15.00;99.90;;;;;;5112794;28;20274;-81
2021/08/07 06:08:02;;;;;;;7.23;1.90;;;15.10;99.90;;;;;;5112443;28;20630;-81
2021/08/07 06:10:29;;;;;;;6.23;2.00;;;15.10;99.90;;;;;;5112853;28;20225;-81
2021/08/07 06:12:56;;;;;;;5.73;1.70;;;15.30;99.90;;;;;;5112634;28;20237;-81
2021/08/07 06:15:24;;;;;;;4.37;1.50;;;15.30;99.90;;;;;;5112875;28;20360;-81
2021/08/07 06:17:50;;;;;;;6.07;1.70;;;15.40;99.90;;;;;;5112642;28;20292;-82
2021/08/07 06:20:19;;;;;;;3.43;1.40;;;15.40;99.90;;;;;;5112530;28;20284;-81
2021/08/07 06:22:46;;;;;;;3.07;1.30;;;15.50;99.90;;;;;;5112949;28;20216;-82
2021/08/07 06:25:13;;;;;;;3.13;1.27;;;15.50;99.90;;;;;;5112476;28;20652;-82
2021/08/07 06:27:40;;;;;;;5.00;1.40;;;15.60;99.90;;;;;;5112763;28;20236;-82
2021/08/07 06:30:08;;;;;;;3.90;1.40;;;15.80;99.90;;;;;;5112719;27;20288;-81
2021/08/07 06:32:35;;;;;;;2.70;1.00;;;15.70;99.90;;;;;;5112823;28;20236;-81
2021/08/07 06:35:02;;;;;;;3.17;0.90;;;15.80;99.90;;;;;;5112555;28;20229;-82
2021/08/07 06:37:31;;;;;;;2.40;1.00;;;15.90;99.90;;;;;;5112624;28;20289;-82
2021/08/07 06:39:58;;;;;;;2.40;0.93;;;15.90;99.90;;;;;;5112437;28;20225;-82
2021/08/07 06:42:26;;;;;;;2.10;0.83;;;;;;;;;;5112271;28;20284;-81
2021/08/07 06:44:54;;;;;;;2.33;1.10;;;;;;;;;;5112111;28;20253;-82
2021/08/07 06:47:23;;;;;;;2.05;0.80;;;;;;;;;;5112626;28;20308;-82
2021/08/07 06:49:51;;;;;;;2.88;0.88;;;;;;;;;;5112199;28;20244;-82
2021/08/07 06:52:20;;;;;;;6.22;1.10;;;;;;;;;;5130386;27;20293;-82
2021/08/07 06:54:50;;;;;;;2.33;0.77;;;;;;;;;;5137151;27;20224;-82
2021/08/07 06:57:20;;;;;;;3.60;1.08;;;;;;;;;;5136887;27;20643;-82
2021/08/07 06:59:51;;;;;;;4.00;1.02;;;;;;;;;;5137173;27;20288;-82
2021/08/07 07:02:20;;;;;;;4.38;1.20;;;;;;;;;;5136777;27;20197;-82
2021/08/07 07:04:50;;;;;;;2.53;0.90;;;;;;;;;;5136395;27;20216;-82
2021/08/07 07:07:19;;;;;;;4.57;1.20;;;;;;;;;;5136665;27;20682;-82
2021/08/07 07:09:51;;;;;;;3.08;0.90;;;;;;;;;;5136743;27;20308;-83
2021/08/07 07:12:20;;;;;;;4.55;1.10;;;;;;;;;;5136915;27;20660;-83
2021/08/07 07:14:49;;;;;;;3.55;1.00;;;;;;;;;;5136701;27;20280;-82
2021/08/07 07:17:19;;;;;;;4.28;1.10;;;;;;;;;;5136337;27;20197;-83
2021/08/07 07:19:48;;;;;;;3.25;1.23;;;;;;;;;;5136263;27;20231;-83
2021/08/07 07:22:18;;;;;;;3.75;1.30;;;;;;;;;;5136454;27;20676;-83
2021/08/07 07:24:47;;;;;;;5.75;1.23;;;;;;;;;;5136376;27;20263;-83
2021/08/07 07:27:18;;;;;;;9.95;1.60;;;;;;;;;;5136534;27;20276;-83
2021/08/07 07:29:48;;;;;;;4.47;1.08;;;;;;;;;;5136563;27;20647;-83
2021/08/07 07:32:17;;;;;;;3.60;1.10;;;;;;;;;;5136271;27;20283;-83
2021/08/07 07:34:45;;;;;;;4.65;1.30;;;;;;;;;;5136378;27;20359;-83
2021/08/07 07:37:14;;;;;;;5.80;1.23;;;;;;;;;;5136150;27;20228;-83
2021/08/07 07:39:44;;;;;;;4.88;1.40;;;;;;;;;;5136349;27;20236;-83
2021/08/07 07:42:11;;;;;;;3.17;1.10;;;;;;;;;;5136124;27;20686;-82
2021/08/07 07:44:40;;;;;;;4.05;0.98;;;;;;;;;;5136346;27;20199;-83
2021/08/07 07:47:08;;;;;;;3.88;1.20;;;;;;;;;;5136157;27;20232;-83
2021/08/07 07:49:35;;;;;;;5.97;1.30;;;;;;;;;;5135898;27;20288;-83
2021/08/07 07:52:02;;;;;;;3.17;1.02;;;;;;;;;;5135544;27;20209;-83
2021/08/07 07:54:30;;;;;;;6.28;1.30;;;;;;;;;;5135852;27;20762;-83
2021/08/07 07:56:57;;;;;;;6.28;1.73;;;;;;;;;;5136062;27;20276;-83
2021/08/07 07:59:24;;;;;;;6.63;1.35;;;;;;;;;;5135694;27;20724;-83
2021/08/07 08:01:53;;;;;;;5.90;1.48;;;;;;;;;;5135717;27;20231;-78
2021/08/07 08:04:20;;;;;;;5.30;1.35;;;;;;;;;;5134894;27;20244;-79
2021/08/07 08:06:47;;;;;;;7.30;1.58;;;;;;;;;;5135887;27;20309;-79
2021/08/07 08:09:14;;;;;;;7.85;1.48;;;;;;;;;;5135480;27;20312;-78
2021/08/07 08:11:42;;;;;;;4.80;1.55;;;;;;;;;;5135820;27;20292;-78
2021/08/07 08:14:09;;;;;;;5.97;1.67;;;;;;;;;;5135185;27;20812;-79
2021/08/07 08:16:36;;;;;;;4.78;1.30;;;;;;;;;;5135200;27;20280;-79
2021/08/07 08:19:04;;;;;;;5.50;1.73;;;;;;;;;;5135370;27;20284;-79
2021/08/07 08:21:33;;;;;;;6.40;1.50;;;;;;;;;;5135832;27;20287;-79
2021/08/07 08:24:00;;;;;;;5.68;1.92;;;;;;;;;;5135421;27;20197;-78
2021/08/07 08:26:28;;;;;;;9.23;1.60;;;;;;;;;;5135203;27;20316;-79
2021/08/07 08:28:55;;;;;;;5.90;1.73;;;;;;;;;;5135279;27;20237;-79
2021/08/07 08:31:22;;;;;;;6.88;1.90;;;;;;;;;;5135302;27;20629;-79
2021/08/07 08:33:49;;;;;;;6.15;1.77;;;;;;;;;;5135173;27;20299;-79
2021/08/07 08:36:18;;;;;;;8.98;1.73;;;;;;;;;;5135277;27;20617;-79
2021/08/07 08:38:46;;;;;;;8.32;1.90;;;;;;;;;;5135217;27;20196;-79
2021/08/07 08:41:13;;;;;;;6.25;1.45;;;;;;;;;;5135060;27;20197;-79
2021/08/07 08:43:40;;;;;;;7.35;1.55;;;;;;;;;;5134878;27;20748;-79
2021/08/07 08:46:08;;;;;;;4.93;1.45;;;;;;;;;;5134878;27;20307;-79
2021/08/07 08:48:37;;;;;;;6.07;1.52;;;;;;;;;;5134979;27;20835;-79
2021/08/07 08:51:08;;;;;;;5.00;1.27;;;;;;;;;;5134598;27;20205;-79
2021/08/07 08:53:41;;;;;;;7.20;1.80;;;;;;;;;;5134587;27;20259;-78
2021/08/07 08:56:11;;;;;;;6.38;1.40;;;;;;;;;;5135047;27;20280;-79
2021/08/07 08:58:41;;;;;;;5.90;1.55;;;;;;;;;;5134489;27;20197;-79
2021/08/07 09:01:11;;;;;;;6.68;1.42;;;;;;;;;;5134288;27;20587;-79
2021/08/07 09:03:43;;;;;;;9.02;1.70;;;;;;;;;;5134873;27;20237;-78
2021/08/07 09:06:13;;;;;;;3.95;1.20;;;;;;;;;;5134426;27;20586;-79
2021/08/07 09:08:58;;;;;;;6.38;1.63;;;;;;;;;;5134625;27;20303;-78
2021/08/07 09:11:27;;;;;;;5.55;1.30;;;;;;;;;;5134859;27;20288;-78
2021/08/07 09:14:18;;;;;;;5.97;1.83;;;;;;;;;;5134458;27;20286;-79
2021/08/07 09:17:04;;;;;;;4.85;1.30;;;;;;;;;;5133406;27;20197;-79
2021/08/07 09:19:49;;;;;;;3.47;1.27;;;;;;;;;;5134556;27;20245;-79
2021/08/07 09:22:19;;;;;;;3.15;1.30;;;;;;;;;;5134225;27;20193;-79
2021/08/07 09:25:01;;;;;;;5.68;1.35;;;;;;;;;;5133245;27;20334;-79
2021/08/07 09:27:31;;;;;;;4.47;1.40;;;;;;;;;;5134355;27;20277;-79
2021/08/07 09:30:00;;;;;;;6.90;1.88;;;;;;;;;;5133854;27;20193;-79
2021/08/07 09:32:29;;;;;;;5.00;1.27;;;;;;;;;;5134252;27;20212;-79
2021/08/07 09:35:11;;;;;;;4.35;1.20;;;;;;;;;;5134241;27;20779;-79
2021/08/07 09:37:40;;;;;;;4.68;1.20;;;;;;;;;;5134305;27;20275;-79
2021/08/07 09:40:12;;;;;;;5.50;1.27;;;;;;;;;;5134457;27;20279;-79
2021/08/07 09:42:52;;;;;;;6.15;1.35;;;;;;;;;;5134101;27;20260;-79
2021/08/07 09:45:25;;;;;;;6.32;1.40;;;;;;;;;;5134270;27;20196;-79
2021/08/07 09:48:00;;;;;;;3.63;1.10;;;;;;;;;;5134180;27;20319;-79
2021/08/07 09:50:30;;;;;;;2.95;1.20;;;;;;;;;;5133937;27;20240;-79
2021/08/07 09:52:57;;;;;;;5.68;1.38;;;27.00;99.90;;;;;;5133776;27;20272;-79
2021/08/07 09:55:26;;;;;;;5.35;1.35;;;;;;;;;;5133996;27;20581;-79
2021/08/07 09:58:03;;;;;;;2.40;1.05;;;;;;;;;;5133999;27;20623;-80
2021/08/07 10:00:37;;;;;;;6.85;1.40;;;;;;;;;;5134580;27;20284;-79
2021/08/07 10:03:15;;;;;;;4.20;1.30;;;;;;;;;;5133831;27;20291;-79
2021/08/07 10:05:42;;;;;;;3.85;1.40;;;;;;;;;;5133587;27;20197;-79
2021/08/07 10:08:10;;;;;;;3.33;1.15;;;;;;;;;;5133169;27;20676;-80
2021/08/07 10:10:39;;;;;;;3.75;1.17;;;;;;;;;;5133684;27;20205;-80
2021/08/07 10:13:07;;;;;;;2.92;1.10;;;;;;;;;;5133842;27;20287;-79
2021/08/07 10:15:34;;;;;;;4.43;1.10;;;;;;;;;;5133938;27;20203;-79
2021/08/07 10:18:02;;;;;;;3.78;0.93;;;;;;;;;;5133937;27;20627;-79
2021/08/07 10:20:30;;;;;;;2.50;1.00;;;;;;;;;;5133755;27;20242;-79
2021/08/07 10:22:57;;;;;;;3.90;1.30;;;;;;;;;;5133457;27;20303;-79
2021/08/07 10:25:25;;;;;;;3.30;1.00;;;;;;;;;;5132910;27;20203;-79
2021/08/07 10:27:59;;;;;;;4.70;1.30;;;;;;;;;;5132330;27;20316;-79
2021/08/07 10:30:26;;;;;;;3.35;1.20;;;;;;;;;;5133466;27;20681;-79
2021/08/07 10:32:56;;;;;;;3.72;1.23;;;;;;;;;;5133768;27;20232;-80
2021/08/07 10:35:24;;;;;;;4.20;1.48;;;;;;;;;;5133283;27;20204;-79
2021/08/07 10:37:51;;;;;;;4.28;1.20;;;;;;;;;;5133169;27;20193;-79
2021/08/07 10:40:18;;;;;;;4.18;1.40;;;;;;;;;;5133772;27;20220;-79
2021/08/07 10:42:47;;;;;;;4.47;1.30;;;;;;;;;;5133340;27;20642;-78
2021/08/07 10:45:16;;;;;;;2.80;0.90;;;;;;;;;;5133413;27;20745;-78
2021/08/07 10:47:44;;;;;;;2.55;0.95;;;;;;;;;;5132861;27;20307;-78
2021/08/07 10:50:36;;;;;;;3.13;0.80;;;;;;;;;;5133333;27;20203;-78
2021/08/07 10:53:04;;;;;;;2.05;0.95;;;;;;;;;;5102046;27;20268;-78
2021/08/07 10:55:48;;;;;;;2.30;0.70;;;;;;;;;;5112654;28;20198;-78
2021/08/07 10:58:36;;;;;;;3.55;0.90;;;;;;;;;;5112606;28;20289;-78
2021/08/07 11:01:21;;;;;;;3.90;1.05;;;;;;;;;;5108172;27;20301;-78
2021/08/07 11:03:50;;;;;;;2.20;0.90;;;;;;;;;;5112594;28;20281;-78
2021/08/07 11:06:18;;;;;;;3.25;0.80;;;;;;;;;;5112602;28;20292;-78
2021/08/07 11:08:45;;;;;;;3.15;1.00;;;;;;;;;;5112564;28;20261;-79
2021/08/07 11:11:28;;;;;;;2.28;0.88;;;;;;;;;;5112027;28;20285;-78
2021/08/07 11:13:55;;;;;;;3.42;0.82;;;;;;;;;;5112190;28;20293;-78
2021/08/07 11:16:23;;;;;;;2.83;0.93;;;;;;;;;;5112896;28;20208;-78
2021/08/07 11:18:51;;;;;;;2.38;0.70;;;;;;;;;;5112332;28;20197;-78
2021/08/07 11:21:37;;;;;;;2.10;0.60;;;;;;;;;;5112433;28;20284;-78
2021/08/07 11:24:04;;;;;;;3.25;0.88;;;;;;;;;;5112341;28;20618;-77
2021/08/07 11:26:47;;;;;;;2.05;0.90;;;;;;;;;;5111477;28;20198;-77
2021/08/07 11:29:14;;;;;;;2.20;0.60;;;;;;;;;;5112645;28;20300;-78
2021/08/07 11:31:41;;;;;;;2.47;0.85;;;;;;;;;;5112451;28;20289;-80
2021/08/07 11:34:29;;;;;;;1.27;0.60;;;;;;;;;;5112874;28;20288;-80
2021/08/07 11:37:17;;;;;;;0.90;0.52;;;;;;;;;;5107670;27;20259;-80
2021/08/07 11:40:03;;;;;;;1.88;0.70;;;;;;;;;;5109240;27;20677;-79
2021/08/07 11:42:35;;;;;;;1.70;0.70;;;;;;;;;;5116613;28;20208;-79
2021/08/07 11:45:02;;;;;;;2.88;0.70;;;;;;;;;;5115908;28;20198;-79
2021/08/07 11:47:30;;;;;;;3.08;0.77;;;;;;;;;;5116336;28;20304;-79
2021/08/07 11:49:57;;;;;;;2.65;0.70;;;;;;;;;;5115504;28;20657;-79
2021/08/07 11:52:29;;;;;;;1.67;0.80;;;;;;;;;;5115280;27;20292;-79
2021/08/07 11:54:57;;;;;;;1.85;0.73;;;;;;;;;;5115067;28;20186;-79
2021/08/07 11:57:24;;;;;;;1.38;0.70;;;;;;;;;;5115323;28;20717;-79
2021/08/07 11:59:53;;;;;;;1.52;0.60;;;;;;;;;;5115423;28;20285;-79
2021/08/07 12:02:20;;;;;;;1.40;0.68;;;;;;;;;;5115577;28;20284;-79
2021/08/07 12:05:07;;;;;;;1.13;0.65;;;;;;;;;;5115047;28;20206;-79
2021/08/07 12:07:35;;;;;;;2.55;0.70;;;;;;;;;;5115283;28;20329;-79
2021/08/07 12:10:05;;;;;;;1.45;0.90;;;;;;;;;;5114985;28;20257;-79
2021/08/07 12:12:32;;;;;;;1.30;0.68;;;;;;;;;;5115020;28;20200;-79
2021/08/07 12:15:08;;;;;;;1.88;0.80;;;;;;;;;;5115069;28;20756;-80
2021/08/07 12:17:35;;;;;;;1.15;0.68;;;;;;;;;;5115413;28;20285;-79
2021/08/07 12:20:02;;;;;;;2.00;0.73;;;;;;;;;;5114849;28;20637;-83
2021/08/07 12:22:29;;;;;;;0.95;0.73;;;;;;;;;;5115117;28;20294;-83
2021/08/07 12:25:02;;;;;;;2.20;0.73;;;;;;;;;;5114487;28;20225;-84
2021/08/07 12:27:29;;;;;;;2.83;0.50;;;;;;;;;;5114909;28;20678;-83
2021/08/07 12:29:56;;;;;;;1.77;0.80;;;;;;;;;;5114455;28;20197;-83
2021/08/07 12:32:25;;;;;;;3.03;0.63;;;;;;;;;;5114604;27;20573;-83
2021/08/07 12:34:52;;;;;;;1.55;0.70;;;;;;;;;;5114649;28;20288;-83
2021/08/07 12:37:20;;;;;;;1.73;0.68;;;;;;;;;;5114137;28;20229;-83
2021/08/07 12:39:49;;;;;;;1.08;0.68;;;;;;;;;;5114649;27;20209;-83
2021/08/07 12:42:17;;;;;;;1.42;0.70;;;;;;;;;;5114574;27;20197;-83
2021/08/07 12:44:45;;;;;;;1.80;0.80;;;;;;;;;;5114388;28;20552;-82
2021/08/07 12:47:12;;;;;;;2.70;0.90;;;;;;;;;;5114077;28;20228;-82
2021/08/07 12:49:43;;;;;;;1.48;0.90;;;;;;;;;;5113520;28;20656;-83
2021/08/07 12:52:12;;;;;;;1.63;0.75;;;;;;;;;;5128248;27;20209;-82
2021/08/07 12:54:40;;;;;;;1.48;1.02;;;;;;;;;;5134630;27;20308;-82
2021/08/07 12:57:22;;;;;;;2.88;1.00;;;;;;;;;;5134501;27;20299;-82
2021/08/07 12:59:52;;;;;;;1.85;0.80;;;;;;;;;;5134568;27;20208;-82
2021/08/07 13:02:22;;;;;;;2.28;0.90;;;;;;;;;;5134488;27;20288;-82
2021/08/07 13:04:52;;;;;;;2.08;0.95;;;;;;;;;;5134677;27;20246;-82
2021/08/07 13:07:29;;;;;;;1.50;1.05;;;;;;;;;;5134316;27;20280;-82
2021/08/07 13:09:56;;;;;;;1.73;0.80;;;;;;;;;;5134278;27;20220;-82
2021/08/07 13:12:25;;;;;;;3.28;1.10;;;;;;;;;;5134808;27;20240;-83
2021/08/07 13:15:09;;;;;;;3.05;0.90;;;;;;;;;;5134170;27;20595;-83
2021/08/07 13:17:36;;;;;;;2.28;1.00;;;;;;;;;;5134450;27;20284;-82
2021/08/07 13:20:05;;;;;;;1.27;0.80;;;;;;;;;;5134443;27;20203;-83
2021/08/07 13:22:33;;;;;;;3.17;0.90;;;;;;;;;;5133830;27;20564;-83
2021/08/07 13:25:01;;;;;;;5.20;1.02;;;;;;;;;;5134336;27;20239;-83
2021/08/07 13:27:35;;;;;;;2.75;0.77;;;;;;;;;;5134356;27;20279;-84
2021/08/07 13:30:03;;;;;;;2.22;0.80;;;;;;;;;;5133850;27;20282;-83
2021/08/07 13:32:30;;;;;;;2.28;0.82;;;;;;;;;;5134272;27;20688;-83
2021/08/07 13:34:58;;;;;;;2.38;1.02;;;;;;;;;;5133767;27;20249;-84
2021/08/07 13:37:26;;;;;;;2.05;1.23;;;;;;;;;;5133895;27;20285;-83
2021/08/07 13:39:56;;;;;;;3.55;1.77;;;;;;;;;;5134042;27;20300;-83
2021/08/07 13:42:24;;;;;;;2.60;1.20;;;;;;;;;;5133865;27;20208;-83
2021/08/07 13:44:54;;;;;;;1.23;0.90;;;;;;;;;;5133549;27;20748;-83
2021/08/07 13:47:21;;;;;;;2.05;1.40;;;;;;;;;;5133907;27;20279;-83
2021/08/07 13:49:50;;;;;;;3.88;2.50;;;;;;;;;;5133477;27;20646;-81
2021/08/07 13:52:18;;;;;;;4.18;2.30;;;21.60;99.90;;;;;;5133335;27;20209;-83
2021/08/07 13:54:48;;;;;;;4.03;2.15;;;;;;;;;;5132194;27;20264;-83
2021/08/07 13:57:16;;;;;;;4.20;2.40;;;;;;;;;;5133808;27;20300;-82
2021/08/07 13:59:45;;;;;;;4.80;2.30;;;;;;;;;;5133811;27;20193;-82
2021/08/07 14:02:12;;;;;;;3.30;2.25;;;;;;;;;;5132896;27;20664;-83
2021/08/07 14:04:40;;;;;;;4.35;2.20;;;;;;;;;;5133431;27;20287;-83
2021/08/07 14:07:07;;;;;;;3.28;2.60;;;;;;;;;;5133068;27;20255;-83
2021/08/07 14:09:35;;;;;;;3.00;2.20;;;;;;;;;;5133108;27;20991;-83
2021/08/07 14:12:03;;;;;;;3.90;2.03;;;;;;;;;;5134438;27;20239;-83
2021/08/07 14:14:30;;;;;;;3.28;1.85;;;;;;;;;;5133988;27;20288;-83
2021/08/07 14:16:58;;;;;;;4.13;1.90;;;;;;;;;;5134386;27;20288;-83
2021/08/07 14:19:25;;;;;;;4.75;1.38;;;;;;;;;;5135335;27;20280;-83
2021/08/07 14:21:53;;;;;;;2.13;1.10;;;;;;;;;;5135627;27;20307;-84
2021/08/07 14:24:21;;;;;;;3.22;1.30;;;;;;;;;;5135022;27;20798;-83
2021/08/07 14:26:50;;;;;;;3.60;1.30;;;;;;;;;;5135982;27;20291;-83
2021/08/07 14:29:19;;;;;;;2.25;1.20;;;;;;;;;;5134977;27;20716;-83